Time;durP1;ratioP1;P1;durP2;ratioP2;P2;SDS_P1;SDS_P2;PMS_P1;PMS_P2;Temp;Humidity;BMP_temperature;BMP_pressure;BME280_temperature;BME280_humidity;BME280_pressure;Samples;Min_cycle;Max_cycle;Signal;HPM_P1;HPM_P2
2021/07/26 00:03:55;;;;;;;;;22.50;19.75;;;;;;;;8895396;40;10930;-65
2021/07/26 00:09:57;;;;;;;;;22.33;21.67;;;;;;;;8896095;40;10182;-66
2021/07/26 00:16:00;;;;;;;;;21.67;20.00;;;;;;;;8894275;40;10788;-66
2021/07/26 00:22:02;;;;;;;;;22.67;22.67;;;;;;;;8895914;40;9909;-67
2021/07/26 00:28:06;;;;;;;;;27.00;23.33;;;;;;;;8894210;40;10363;-67
2021/07/26 00:34:27;;;;;;;;;19.00;18.67;;;;;;;;8894169;40;10404;-66
2021/07/26 00:40:29;;;;;;;;;18.33;18.33;;;;;;;;8894494;40;10328;-66
2021/07/26 00:46:31;;;;;;;;;20.67;19.33;;;;;;;;8893765;40;10518;-67
2021/07/26 00:52:33;;;;;;;;;22.00;22.00;;;;;;;;8884701;40;10699;-67
2021/07/26 00:58:36;;;;;;;;;20.67;20.00;;;;;;;;8884410;40;10530;-66
2021/07/26 01:04:38;;;;;;;;;25.00;22.67;;;;;;;;8893958;40;9934;-67
2021/07/26 01:10:41;;;;;;;;;21.33;19.00;;;;;;;;8894231;40;10545;-66
2021/07/26 01:16:46;;;;;;;;;23.33;23.33;;;;;;;;8896026;40;10205;-66
2021/07/26 01:22:48;;;;;;;;;23.67;22.00;;;;;;;;8897570;40;10449;-66
2021/07/26 01:28:56;;;;;;;;;21.00;19.33;;;;;;;;8897562;40;9900;-65
2021/07/26 01:34:58;;;;;;;;;24.67;23.00;;;;;;;;8897171;40;10824;-66
2021/07/26 01:41:07;;;;;;;;;21.33;21.33;;;;;;;;8896872;40;10573;-67
2021/07/26 01:47:13;;;;;;;;;18.50;18.50;;;;;;;;8896746;40;10336;-66
2021/07/26 01:53:15;;;;;;;;;17.33;17.33;;;;;;;;8896864;40;10024;-66
2021/07/26 01:59:18;;;;;;;;;19.67;18.67;;;;;;;;8896071;40;10106;-66
2021/07/26 02:05:20;;;;;;;;;26.00;23.00;;;;;;;;8887270;40;10200;-65
2021/07/26 02:11:22;;;;;;;;;28.67;26.33;;;;;;;;8897184;40;9912;-66
2021/07/26 02:17:24;;;;;;;;;27.00;26.00;;;;;;;;8896455;40;10413;-65
2021/07/26 02:23:26;;;;;;;;;29.33;28.00;;;;;;;;8897334;40;9917;-66
2021/07/26 02:29:28;;;;;;;;;31.67;28.33;;;;;;;;8896283;40;9813;-66
2021/07/26 02:35:30;;;;;;;;;33.00;30.33;;;;;;;;8895900;40;10123;-65
2021/07/26 02:41:32;;;;;;;;;26.33;25.67;;;;;;;;8896828;40;10137;-65
2021/07/26 02:47:35;;;;;;;;;26.33;24.00;;;;;;;;8895715;40;9957;-66
2021/07/26 02:53:38;;;;;;;;;28.00;27.67;;;;;;;;8897126;40;10113;-66
2021/07/26 02:59:41;;;;;;;;;28.00;27.00;;;;;;;;8895192;40;9900;-65
2021/07/26 03:05:44;;;;;;;;;27.33;25.67;;;;;;;;8895737;40;9911;-65
2021/07/26 03:11:47;;;;;;;;;30.67;26.67;;;;;;;;8896065;40;9909;-66
2021/07/26 03:17:49;;;;;;;;;28.67;26.67;;;;;;;;8894960;40;9855;-66
2021/07/26 03:23:52;;;;;;;;;24.67;24.67;;;;;;;;8896216;40;9917;-66
2021/07/26 03:29:55;;;;;;;;;28.00;25.67;;;;;;;;8895465;40;9941;-65
2021/07/26 03:35:57;;;;;;;;;28.33;27.33;;;;;;;;8895020;40;9871;-66
2021/07/26 03:41:59;;;;;;;;;35.00;31.00;;;;;;;;8894967;40;10136;-66
2021/07/26 03:48:01;;;;;;;;;31.67;29.67;;;;;;;;8895540;40;10187;-66
2021/07/26 03:54:03;;;;;;;;;29.67;29.67;;;;;;;;8896677;40;10494;-66
2021/07/26 04:00:06;;;;;;;;;27.00;25.67;;;;;;;;8886377;40;9914;-66
2021/07/26 04:06:40;;;;;;;;;31.00;30.00;;;;;;;;9611618;23;10370;-58
2021/07/26 04:12:45;;;;;;;;;29.67;28.33;;;;;;;;8824410;40;10670;-59
2021/07/26 04:18:50;;;;;;;;;32.33;30.00;;;;;;;;8824424;40;9894;-59
2021/07/26 04:24:52;;;;;;;;;30.00;27.00;;;;;;;;8824947;40;9791;-58
2021/07/26 04:30:54;;;;;;;;;31.67;31.67;;;;;;;;8824202;40;9877;-59
2021/07/26 04:36:57;;;;;;;;;29.00;26.67;;;;;;;;8825302;40;10907;-58
2021/07/26 04:42:59;;;;;;;;;26.00;24.33;;;;;;;;8823823;40;9806;-60
2021/07/26 04:49:01;;;;;;;;;31.67;31.67;;;;;;;;8824524;40;9850;-59
2021/07/26 04:55:04;;;;;;;;;30.67;29.00;;;;;;;;8824876;40;9858;-59
2021/07/26 05:01:25;;;;;;;;;27.33;24.33;;;;;;;;8823699;40;9921;-59
2021/07/26 05:07:28;;;;;;;;;25.67;25.33;;;;;;;;8812137;40;10174;-58
2021/07/26 05:13:30;;;;;;;;;30.00;27.33;;;;;;;;8810512;40;9965;-58
2021/07/26 05:19:32;;;;;;;;;33.33;28.67;;;;;;;;8821148;40;9857;-59
2021/07/26 05:25:36;;;;;;;;;36.67;35.00;;;;;;;;8823399;40;9936;-58
2021/07/26 05:31:38;;;;;;;;;30.33;29.00;;;;;;;;8813524;40;10070;-58
2021/07/26 05:37:41;;;;;;;;;26.33;26.33;;;;;;;;8815519;40;9889;-58
2021/07/26 05:43:44;;;;;;;;;29.67;28.67;;;;;;;;8798348;40;11155;-57
2021/07/26 05:49:46;;;;;;;;;30.33;28.00;;;;;;;;8804869;40;11137;-58
2021/07/26 05:55:48;;;;;;;;;35.33;31.67;;;;;;;;8810179;40;10742;-58
2021/07/26 06:01:51;;;;;;;;;26.67;22.00;;;;;;;;8793088;40;10161;-58
2021/07/26 06:07:54;;;;;;;;;24.33;23.67;;;;;;;;8794750;40;10537;-58
2021/07/26 06:13:57;;;;;;;;;33.75;30.00;;;;;;;;8793669;40;10944;-57
2021/07/26 06:19:59;;;;;;;;;29.50;27.00;;;;;;;;8798897;40;10873;-58
2021/07/26 06:26:05;;;;;;;;;32.00;29.33;;;;;;;;8798341;40;10108;-58
2021/07/26 06:32:07;;;;;;;;;27.50;24.75;;;;;;;;8796806;40;11530;-58
2021/07/26 06:38:09;;;;;;;;;34.25;31.25;;;;;;;;8798139;40;10740;-58
2021/07/26 06:44:11;;;;;;;;;32.00;29.75;;;;;;;;8797039;40;10976;-60
2021/07/26 06:50:13;;;;;;;;;28.50;27.50;;;;;;;;8787253;40;11000;-58
2021/07/26 06:56:15;;;;;;;;;25.25;25.25;;;;;;;;8796958;40;11819;-58
2021/07/26 07:02:18;;;;;;;;;25.50;25.50;;;;;;;;8794362;40;10591;-61
2021/07/26 07:08:21;;;;;;;;;26.75;24.75;;;;;;;;8789497;40;10619;-59
2021/07/26 07:14:23;;;;;;;;;28.50;25.00;;;;;;;;8780203;40;10370;-59
2021/07/26 07:20:25;;;;;;;;;30.00;27.50;;;;;;;;8796498;40;10432;-57
2021/07/26 07:26:29;;;;;;;;;21.75;20.25;;;;;;;;8795844;40;10298;-58
2021/07/26 07:32:32;;;;;;;;;23.50;23.00;;;;;;;;8786279;40;10390;-59
2021/07/26 07:38:35;;;;;;;;;23.00;21.00;;;;;;;;8795021;40;10513;-58
2021/07/26 07:44:37;;;;;;;;;24.50;20.50;;;;;;;;8796634;40;10328;-58
2021/07/26 07:50:39;;;;;;;;;22.75;22.75;;;;;;;;8781664;40;10865;-59
2021/07/26 07:56:42;;;;;;;;;18.50;18.50;;;;;;;;8787969;40;10370;-59
2021/07/26 08:02:44;;;;;;;;;22.25;20.75;;;;;;;;8794869;40;10926;-59
2021/07/26 08:08:46;;;;;;;;;18.00;18.00;;;;;;;;8795274;40;10395;-56
2021/07/26 08:14:48;;;;;;;;;20.00;19.25;;;;;;;;8795803;40;10600;-59
2021/07/26 08:20:51;;;;;;;;;17.50;17.50;;;;;;;;8794269;40;10473;-58
2021/07/26 08:26:56;;;;;;;;;25.75;25.75;;;;;;;;8793671;40;10411;-58
2021/07/26 08:33:01;;;;;;;;;21.50;21.50;;;;;;;;8791614;40;10878;-59
2021/07/26 08:39:03;;;;;;;;;24.00;20.00;;;;;;;;8788229;40;10499;-59
2021/07/26 08:45:08;;;;;;;;;20.00;20.00;;;;;;;;8801822;40;10947;-58
2021/07/26 08:51:14;;;;;;;;;19.00;19.00;;;;;;;;8793136;40;10989;-59
2021/07/26 08:57:17;;;;;;;;;21.50;19.50;;;;;;;;8794210;40;10537;-58
2021/07/26 09:03:19;;;;;;;;;18.25;18.25;;;;;;;;8786316;40;10546;-58
2021/07/26 09:09:49;;;;;;;;;16.50;16.00;;;;;;;;8792472;40;10275;-57
2021/07/26 09:15:51;;;;;;;;;16.75;15.00;;;;;;;;8792363;40;10442;-59
2021/07/26 09:21:59;;;;;;;;;18.25;16.50;;;;;;;;8794073;40;10343;-58
2021/07/26 09:28:16;;;;;;;;;16.50;15.00;;;;;;;;8791851;40;10322;-61
2021/07/26 09:34:22;;;;;;;;;18.00;16.75;;;;;;;;8798439;40;10545;-59
2021/07/26 09:40:27;;;;;;;;;13.25;13.25;;;;;;;;8793721;40;10371;-59
2021/07/26 09:46:31;;;;;;;;;17.50;16.50;;;;;;;;8796260;40;11289;-59
2021/07/26 09:52:33;;;;;;;;;18.25;17.25;;;;;;;;8805691;40;10281;-58
2021/07/26 09:58:40;;;;;;;;;19.25;15.75;;;;;;;;8800025;40;10330;-59
2021/07/26 10:04:47;;;;;;;;;18.50;16.25;;;;;;;;8797150;40;10548;-58
2021/07/26 10:10:49;;;;;;;;;17.75;15.75;;;;;;;;8808367;40;10344;-59
2021/07/26 10:16:51;;;;;;;;;21.25;18.50;;;;;;;;8805308;40;10440;-57
2021/07/26 10:23:07;;;;;;;;;23.25;23.25;;;;;;;;8807506;40;10906;-57
2021/07/26 10:29:10;;;;;;;;;18.50;18.00;;;;;;;;8794967;40;10565;-58
2021/07/26 10:35:14;;;;;;;;;17.00;17.00;;;;;;;;8794146;40;11652;-59
2021/07/26 10:41:55;;;;;;;;;19.00;17.00;;;;;;;;8800692;40;10469;-59
2021/07/26 10:48:22;;;;;;;;;15.50;15.50;;;;;;;;8702901;40;10709;-58
2021/07/26 10:54:32;;;;;;;;;15.25;14.00;;;;;;;;8803212;40;10528;-58
2021/07/26 11:00:34;;;;;;;;;18.75;17.75;;;;;;;;8781538;40;10345;-59
2021/07/26 11:06:40;;;;;;;;;17.25;15.75;;;;;;;;8790579;40;10372;-57
2021/07/26 11:12:53;;;;;;;;;15.75;14.25;;;;;;;;8788413;40;10383;-59
2021/07/26 11:18:55;;;;;;;;;17.25;17.25;;;;;;;;8787616;40;10373;-59
2021/07/26 11:25:05;;;;;;;;;24.50;20.75;;;;;;;;8792822;40;10386;-59
2021/07/26 11:31:08;;;;;;;;;17.25;16.00;;;;;;;;8788504;40;10373;-59
2021/07/26 11:37:15;;;;;;;;;15.50;15.25;;;;;;;;8797380;40;10524;-59
2021/07/26 11:43:35;;;;;;;;;13.25;12.75;;;;;;;;8794687;40;10385;-59
2021/07/26 11:49:37;;;;;;;;;25.25;19.00;;;;;;;;8795520;40;10304;-59
2021/07/26 11:55:41;;;;;;;;;16.75;16.75;;;;;;;;8798230;40;10353;-57
2021/07/26 12:01:46;;;;;;;;;20.75;19.75;;;;;;;;8787036;40;10928;-59
2021/07/26 12:07:49;;;;;;;;;16.25;16.25;;;;;;;;8797256;40;10352;-58
2021/07/26 12:13:51;;;;;;;;;21.75;18.00;;;;;;;;8800010;40;10646;-59
2021/07/26 12:20:02;;;;;;;;;20.00;18.75;;;;;;;;8801514;40;10867;-59
2021/07/26 12:26:12;;;;;;;;;12.75;12.75;;;;;;;;8798281;40;10338;-58
2021/07/26 12:32:15;;;;;;;;;18.25;18.25;;;;;;;;8797974;40;10263;-57
2021/07/26 12:38:18;;;;;;;;;22.00;20.25;;;;;;;;8788818;40;11258;-59
2021/07/26 12:44:27;;;;;;;;;20.25;19.75;;;;;;;;8785345;40;10289;-59
2021/07/26 12:50:31;;;;;;;;;20.25;20.00;;;;;;;;8806529;40;10466;-59
2021/07/26 12:56:33;;;;;;;;;21.50;21.25;;;;;;;;8805855;40;10392;-59
2021/07/26 13:02:36;;;;;;;;;19.25;19.25;;;;;;;;8795068;40;10944;-58
2021/07/26 13:08:38;;;;;;;;;17.50;17.25;;;;;;;;8786874;40;10409;-59
2021/07/26 13:14:40;;;;;;;;;15.25;15.25;;;;;;;;8805071;40;10659;-58
2021/07/26 13:20:43;;;;;;;;;18.00;17.00;;;;;;;;8806543;40;10261;-57
2021/07/26 13:26:45;;;;;;;;;18.25;18.25;;;;;;;;8804632;40;10441;-57
2021/07/26 13:32:47;;;;;;;;;18.75;18.25;;;;;;;;8793851;40;10320;-59
2021/07/26 13:38:49;;;;;;;;;23.25;20.50;;;;;;;;8791433;40;11152;-58
2021/07/26 13:44:52;;;;;;;;;19.00;17.75;;;;;;;;8791843;40;10397;-58
2021/07/26 13:50:54;;;;;;;;;25.50;25.50;;;;;;;;8779621;40;10902;-57
2021/07/26 13:56:57;;;;;;;;;20.00;20.00;;;;;;;;8780143;40;10443;-57
2021/07/26 14:02:59;;;;;;;;;19.50;18.25;;;;;;;;8792413;40;10385;-59
2021/07/26 14:09:02;;;;;;;;;26.25;23.75;;;;;;;;8827864;40;10530;-57
2021/07/26 14:15:05;;;;;;;;;23.00;19.75;;;;;;;;8792644;40;10427;-59
2021/07/26 14:21:07;;;;;;;;;16.00;16.00;;;;;;;;8777030;40;10389;-58
2021/07/26 14:27:09;;;;;;;;;28.75;26.50;;;;;;;;8783693;40;10331;-58
2021/07/26 14:33:12;;;;;;;;;19.50;17.50;;;;;;;;8790170;40;10566;-58
2021/07/26 14:39:19;;;;;;;;;23.25;22.00;;;;;;;;8799045;40;10333;-58
2021/07/26 14:45:21;;;;;;;;;19.25;19.00;;;;;;;;8799082;40;10397;-59
2021/07/26 14:51:23;;;;;;;;;20.25;19.25;;;;;;;;8787719;40;10344;-57
2021/07/26 14:57:26;;;;;;;;;20.25;20.25;;;;;;;;8772486;40;10362;-58
2021/07/26 15:03:28;;;;;;;;;20.25;20.25;;;;;;;;8788832;40;10373;-58
2021/07/26 15:09:30;;;;;;;;;19.25;19.00;;;;;;;;8822767;40;10349;-58
2021/07/26 15:15:34;;;;;;;;;20.50;19.75;;;;;;;;8803353;40;10385;-58
2021/07/26 15:21:36;;;;;;;;;20.75;18.75;;;;;;;;8791165;40;10423;-58
2021/07/26 15:27:39;;;;;;;;;19.00;17.75;;;;;;;;8773337;40;10578;-58
2021/07/26 15:33:41;;;;;;;;;17.75;17.00;;;;;;;;8775249;40;10787;-58
2021/07/26 15:39:44;;;;;;;;;22.75;21.25;;;;;;;;8773714;40;11393;-57
2021/07/26 15:45:46;;;;;;;;;18.75;17.50;;;;;;;;8774525;40;10356;-59
2021/07/26 15:51:48;;;;;;;;;21.25;19.75;;;;;;;;8774353;40;10376;-59
2021/07/26 15:57:50;;;;;;;;;22.00;22.00;;;;;;;;8773084;40;10351;-60
2021/07/26 16:03:53;;;;;;;;;21.75;21.25;;;;;;;;8783648;40;10351;-59
2021/07/26 16:09:55;;;;;;;;;20.75;20.75;;;;;;;;8797631;40;10812;-60
2021/07/26 16:15:57;;;;;;;;;19.25;19.25;;;;;;;;8798084;40;10375;-59
2021/07/26 16:22:00;;;;;;;;;16.25;14.75;;;;;;;;8797882;40;10357;-60
2021/07/26 16:28:02;;;;;;;;;20.00;19.25;;;;;;;;8797104;40;10510;-59
2021/07/26 16:34:04;;;;;;;;;21.25;20.25;;;;;;;;8798925;40;10391;-59
2021/07/26 16:40:08;;;;;;;;;22.50;20.00;;;;;;;;8796859;40;10478;-60
2021/07/26 16:46:10;;;;;;;;;26.25;21.25;;;;;;;;8786868;40;10344;-59
2021/07/26 16:52:12;;;;;;;;;18.50;18.50;;;;;;;;8796984;40;10663;-57
2021/07/26 16:58:14;;;;;;;;;25.25;22.75;;;;;;;;8796585;40;10352;-60
2021/07/26 17:04:17;;;;;;;;;23.50;21.75;;;;;;;;8796319;40;10367;-60
2021/07/26 17:10:20;;;;;;;;;22.25;22.25;;;;;;;;8796598;40;10858;-60
2021/07/26 17:16:22;;;;;;;;;27.25;24.00;;;;;;;;8796021;40;10317;-60
2021/07/26 17:22:25;;;;;;;;;30.50;29.25;;;;;;;;8798181;40;10484;-60
2021/07/26 17:28:32;;;;;;;;;26.25;26.25;;;;;;;;8796139;40;10374;-58
2021/07/26 17:34:34;;;;;;;;;25.50;24.25;;;;;;;;8796443;40;10459;-58
2021/07/26 17:40:36;;;;;;;;;23.00;21.75;;;;;;;;8796564;40;10404;-60
2021/07/26 17:46:38;;;;;;;;;25.00;25.00;;;;;;;;8786870;40;10667;-59
2021/07/26 17:52:44;;;;;;;;;23.75;23.25;;;;;;;;8796161;40;10304;-59
2021/07/26 17:58:48;;;;;;;;;22.25;19.25;;;;;;;;8798532;40;10411;-60
2021/07/26 18:04:50;;;;;;;;;25.25;25.25;;;;;;;;8800821;40;10316;-60
2021/07/26 18:10:52;;;;;;;;;26.50;25.00;;;;;;;;8800041;40;10343;-59
2021/07/26 18:16:55;;;;;;;;;34.00;29.50;;;;;;;;8800506;40;10952;-59
2021/07/26 18:22:59;;;;;;;;;31.00;27.00;;;;;;;;8800155;40;10451;-59
2021/07/26 18:29:03;;;;;;;;;26.25;24.75;;;;;;;;8799041;40;10569;-59
2021/07/26 18:35:05;;;;;;;;;24.75;23.50;;;;;;;;8799769;40;10364;-59
2021/07/26 18:41:09;;;;;;;;;33.50;29.75;;;;;;;;8799597;40;10530;-60
2021/07/26 18:47:11;;;;;;;;;31.50;27.75;;;;;;;;8798927;40;10586;-59
2021/07/26 18:53:13;;;;;;;;;27.25;26.25;;;;;;;;8799906;40;10406;-59
2021/07/26 18:59:16;;;;;;;;;30.50;28.00;;;;;;;;8797823;40;10651;-59
2021/07/26 19:05:19;;;;;;;;;22.75;22.00;;;;;;;;8796802;40;11032;-59
2021/07/26 19:11:22;;;;;;;;;26.00;26.00;;;;;;;;8797769;40;10986;-59
2021/07/26 19:17:24;;;;;;;;;30.25;29.50;;;;;;;;8797518;40;11117;-59
2021/07/26 19:23:26;;;;;;;;;31.75;30.25;;;;;;;;8787724;40;10460;-59
2021/07/26 19:29:30;;;;;;;;;29.25;28.75;;;;;;;;8796914;40;10524;-60
2021/07/26 19:35:33;;;;;;;;;43.75;37.75;;;;;;;;8796313;40;11031;-59
2021/07/26 19:41:36;;;;;;;;;40.00;39.25;;;;;;;;8796792;40;10871;-59
2021/07/26 19:47:38;;;;;;;;;65.67;53.33;;;;;;;;8796366;40;9879;-60
2021/07/26 19:53:41;;;;;;;;;39.00;37.00;;;;;;;;8797168;40;10662;-60
2021/07/26 19:59:44;;;;;;;;;30.75;30.75;;;;;;;;8796886;40;10521;-58
2021/07/26 20:05:46;;;;;;;;;30.00;24.25;;;;;;;;8796645;40;10504;-58
2021/07/26 20:11:48;;;;;;;;;30.25;25.00;;;;;;;;8796164;40;10513;-59
2021/07/26 20:17:52;;;;;;;;;26.25;26.25;;;;;;;;8795995;40;10401;-58
2021/07/26 20:23:58;;;;;;;;;26.00;26.00;;;;;;;;8796359;40;10398;-59
2021/07/26 20:30:00;;;;;;;;;26.00;24.50;;;;;;;;8796678;40;10646;-59
2021/07/26 20:36:03;;;;;;;;;25.25;23.25;;;;;;;;8795678;40;10330;-58
2021/07/26 20:42:05;;;;;;;;;30.00;24.50;;;;;;;;8795783;40;10836;-59
2021/07/26 20:48:08;;;;;;;;;25.50;25.50;;;;;;;;8796087;40;11227;-59
2021/07/26 20:54:11;;;;;;;;;31.25;28.00;;;;;;;;8795974;40;10541;-60
2021/07/26 21:00:14;;;;;;;;;25.25;25.25;;;;;;;;8795912;40;10519;-61
2021/07/26 21:06:16;;;;;;;;;33.00;27.75;;;;;;;;8794842;40;10527;-59
2021/07/26 21:12:18;;;;;;;;;24.00;21.25;;;;;;;;8796257;40;10458;-59
2021/07/26 21:18:20;;;;;;;;;24.75;24.75;;;;;;;;8794591;40;10430;-58
2021/07/26 21:24:22;;;;;;;;;27.25;22.25;;;;;;;;8795484;40;10583;-57
2021/07/26 21:30:25;;;;;;;;;28.00;25.50;;;;;;;;8795970;40;11116;-59
2021/07/26 21:36:27;;;;;;;;;31.25;26.75;;;;;;;;8798295;40;11344;-59
2021/07/26 21:42:29;;;;;;;;;23.00;21.25;;;;;;;;8789325;40;10469;-58
2021/07/26 21:48:31;;;;;;;;;19.25;19.25;;;;;;;;8798133;40;10432;-58
2021/07/26 21:54:34;;;;;;;;;24.25;21.75;;;;;;;;8800002;40;10645;-59
2021/07/26 22:00:37;;;;;;;;;39.25;37.25;;;;;;;;8798555;40;11025;-59
2021/07/26 22:06:39;;;;;;;;;38.00;33.33;;;;;;;;8799450;40;10387;-58
2021/07/26 22:12:41;;;;;;;;;50.67;41.00;;;;;;;;8798942;40;9868;-58
2021/07/26 22:18:44;;;;;;;;;66.33;52.33;;;;;;;;8796457;40;9851;-58
2021/07/26 22:24:47;;;;;;;;;64.33;51.33;;;;;;;;8798237;40;9865;-58
2021/07/26 22:30:50;;;;;;;;;57.00;48.00;;;;;;;;8798498;40;10468;-58
2021/07/26 22:36:52;;;;;;;;;62.67;51.33;;;;;;;;8799074;40;10431;-58
2021/07/26 22:42:54;;;;;;;;;66.00;53.33;;;;;;;;8797754;40;10514;-58
2021/07/26 22:48:57;;;;;;;;;67.67;53.67;;;;;;;;8797515;40;9811;-58
2021/07/26 22:54:59;;;;;;;;;85.00;77.75;;;;;;;;8674163;40;5000789;-58
2021/07/26 23:01:01;;;;;;;;;94.75;88.25;;;;;;;;8797114;40;10380;-58
2021/07/26 23:07:04;;;;;;;;;122.75;117.75;;;;;;;;8797545;40;10497;-59
2021/07/26 23:13:06;;;;;;;;;128.50;120.25;;;;;;;;8798115;40;10511;-59
2021/07/26 23:19:08;;;;;;;;;117.00;114.00;;;;;;;;8796728;40;10486;-59
2021/07/26 23:25:11;;;;;;;;;101.25;96.50;;;;;;;;8797224;40;10649;-59
2021/07/26 23:31:13;;;;;;;;;84.00;76.50;;;;;;;;8796696;40;10864;-59
2021/07/26 23:37:15;;;;;;;;;79.75;64.50;;;;;;;;8797424;40;10556;-59
2021/07/26 23:43:18;;;;;;;;;65.00;54.00;;;;;;;;8797635;40;10690;-59
2021/07/26 23:49:20;;;;;;;;;65.67;53.00;;;;;;;;8796805;40;10099;-59
2021/07/26 23:55:22;;;;;;;;;58.33;48.00;;;;;;;;8796364;40;10448;-59
